BAW964H EGLL-EDDH
Flight info
| Callsign | BAW964H |
|---|---|
| Flight time | 1h 13m |
| Altitude | 37000 |
| Route | BPK Q295 SOMVA DCT MAVAS DCT VALAM DCT GASTU DCT OSTOR/N0417F230 T904 RIBSO RIBSO3S |
| Aircraft | A319/M-SDE3FGHIRWY/LB1 |
Departure
| Time | 2026-04-23 10:03 |
|---|---|
| Airport | London Heathrow Airport (EGLL) |
Arrival
| Time | 2026-04-23 11:16 |
|---|---|
| Airport | Hamburg Helmut Schmidt Airport (EDDH) |
| Time | Latitude | Longitude | Altitude | Speed | Heading |
|---|---|---|---|---|---|
| 2026-04-23 09:37 | 51.47403 | -0.48891 | 86 ft | 0 kts | 179° |
| 2026-04-23 09:55 | 51.47409 | -0.48891 | 91 ft | 4 kts | 179° |
| 2026-04-23 09:56 | 51.47436 | -0.48891 | 88 ft | 4 kts | 179° |
| 2026-04-23 09:56 | 51.47463 | -0.48891 | 87 ft | 4 kts | 176° |
| 2026-04-23 09:56 | 51.47487 | -0.48903 | 88 ft | 4 kts | 140° |
| 2026-04-23 09:56 | 51.47506 | -0.48932 | 91 ft | 3 kts | 134° |
| 2026-04-23 09:57 | 51.47508 | -0.48935 | 90 ft | 0 kts | 134° |
| 2026-04-23 09:59 | 51.47507 | -0.48934 | 89 ft | 1 kts | 134° |
| 2026-04-23 09:59 | 51.47495 | -0.48905 | 88 ft | 5 kts | 118° |
| 2026-04-23 09:59 | 51.47487 | -0.48831 | 86 ft | 9 kts | 91° |
| 2026-04-23 09:59 | 51.47487 | -0.48716 | 86 ft | 12 kts | 90° |
| 2026-04-23 10:00 | 51.47487 | -0.48576 | 86 ft | 14 kts | 90° |
| 2026-04-23 10:00 | 51.47418 | -0.48476 | 86 ft | 17 kts | 175° |
| 2026-04-23 10:00 | 51.47290 | -0.48473 | 86 ft | 20 kts | 180° |
| 2026-04-23 10:00 | 51.47145 | -0.48472 | 86 ft | 22 kts | 179° |
| 2026-04-23 10:01 | 51.46997 | -0.48470 | 86 ft | 22 kts | 179° |
| 2026-04-23 10:01 | 51.46851 | -0.48469 | 86 ft | 19 kts | 180° |
| 2026-04-23 10:01 | 51.46709 | -0.48468 | 86 ft | 21 kts | 179° |
| 2026-04-23 10:01 | 51.46569 | -0.48467 | 86 ft | 19 kts | 180° |
| 2026-04-23 10:02 | 51.46478 | -0.48425 | 90 ft | 11 kts | 92° |
| 2026-04-23 10:02 | 51.46478 | -0.48275 | 88 ft | 24 kts | 90° |
| 2026-04-23 10:02 | 51.46481 | -0.47671 | 86 ft | 84 kts | 89° |
| 2026-04-23 10:02 | 51.46485 | -0.46434 | 89 ft | 136 kts | 89° |
| 2026-04-23 10:03 | 51.46496 | -0.44719 | 293 ft | 165 kts | 89° |
| 2026-04-23 10:03 | 51.46501 | -0.42780 | 758 ft | 181 kts | 88° |
| 2026-04-23 10:03 | 51.46757 | -0.40797 | 1436 ft | 192 kts | 66° |
| 2026-04-23 10:03 | 51.47687 | -0.38997 | 1737 ft | 227 kts | 48° |
| 2026-04-23 10:04 | 51.48799 | -0.37102 | 2546 ft | 240 kts | 53° |
| 2026-04-23 10:04 | 51.49899 | -0.35029 | 3500 ft | 247 kts | 54° |
| 2026-04-23 10:04 | 51.51005 | -0.32872 | 4464 ft | 253 kts | 54° |
| 2026-04-23 10:04 | 51.52099 | -0.30604 | 5413 ft | 260 kts | 62° |
| 2026-04-23 10:05 | 51.52798 | -0.27923 | 5816 ft | 261 kts | 74° |
| 2026-04-23 10:05 | 51.53424 | -0.25151 | 5960 ft | 261 kts | 69° |
| 2026-04-23 10:05 | 51.54210 | -0.22492 | 6386 ft | 267 kts | 66° |
| 2026-04-23 10:05 | 51.55039 | -0.19832 | 7385 ft | 266 kts | 66° |
| 2026-04-23 10:06 | 51.55881 | -0.17167 | 8272 ft | 270 kts | 65° |
| 2026-04-23 10:06 | 51.56725 | -0.14493 | 9232 ft | 274 kts | 65° |
| 2026-04-23 10:06 | 51.57600 | -0.11711 | 10119 ft | 277 kts | 65° |
| 2026-04-23 10:06 | 51.58480 | -0.08900 | 10807 ft | 288 kts | 65° |
| 2026-04-23 10:07 | 51.59412 | -0.05903 | 11076 ft | 312 kts | 65° |
| 2026-04-23 10:07 | 51.60413 | -0.02667 | 11317 ft | 333 kts | 65° |
| 2026-04-23 10:07 | 51.61459 | 0.00726 | 11836 ft | 341 kts | 64° |
| 2026-04-23 10:07 | 51.62501 | 0.04108 | 12603 ft | 342 kts | 64° |
| 2026-04-23 10:08 | 51.63565 | 0.07554 | 13336 ft | 346 kts | 64° |
| 2026-04-23 10:08 | 51.64639 | 0.11040 | 14059 ft | 348 kts | 64° |
| 2026-04-23 10:08 | 51.65717 | 0.14545 | 14739 ft | 351 kts | 64° |
| 2026-04-23 10:09 | 51.67898 | 0.21655 | 16020 ft | 357 kts | 64° |
| 2026-04-23 10:09 | 51.69001 | 0.25255 | 16671 ft | 360 kts | 63° |
| 2026-04-23 10:09 | 51.70114 | 0.28886 | 17313 ft | 363 kts | 63° |
| 2026-04-23 10:09 | 51.71233 | 0.32547 | 17957 ft | 366 kts | 63° |
| 2026-04-23 10:10 | 51.72361 | 0.36250 | 18599 ft | 369 kts | 63° |
| 2026-04-23 10:10 | 51.73491 | 0.39979 | 19190 ft | 372 kts | 63° |
| 2026-04-23 10:10 | 51.74634 | 0.43749 | 19756 ft | 375 kts | 63° |
| 2026-04-23 10:10 | 51.75786 | 0.47546 | 20310 ft | 378 kts | 63° |
| 2026-04-23 10:11 | 51.76945 | 0.51371 | 20911 ft | 381 kts | 63° |
| 2026-04-23 10:11 | 51.77732 | 0.53972 | 21291 ft | 382 kts | 63° |
| 2026-04-23 10:11 | 51.78901 | 0.57845 | 21805 ft | 385 kts | 63° |
| 2026-04-23 10:11 | 51.80079 | 0.61754 | 22316 ft | 388 kts | 63° |
| 2026-04-23 10:12 | 51.81262 | 0.65692 | 22791 ft | 392 kts | 64° |
| 2026-04-23 10:12 | 51.82396 | 0.69721 | 23267 ft | 395 kts | 65° |
| 2026-04-23 10:12 | 51.83475 | 0.73826 | 23746 ft | 399 kts | 66° |
| 2026-04-23 10:12 | 51.84528 | 0.77996 | 24188 ft | 402 kts | 67° |
| 2026-04-23 10:13 | 51.85574 | 0.82204 | 24578 ft | 405 kts | 67° |
| 2026-04-23 10:13 | 51.86635 | 0.86438 | 24967 ft | 407 kts | 67° |
| 2026-04-23 10:13 | 51.87714 | 0.90689 | 25353 ft | 410 kts | 67° |
| 2026-04-23 10:13 | 51.88809 | 0.94975 | 25736 ft | 413 kts | 67° |
| 2026-04-23 10:14 | 51.89914 | 0.99281 | 26121 ft | 416 kts | 69° |
| 2026-04-23 10:14 | 51.91016 | 1.03562 | 26481 ft | 419 kts | 69° |
| 2026-04-23 10:14 | 51.92140 | 1.07933 | 26848 ft | 422 kts | 69° |
| 2026-04-23 10:14 | 51.93281 | 1.12390 | 27220 ft | 424 kts | 69° |
| 2026-04-23 10:15 | 51.94397 | 1.16768 | 27584 ft | 427 kts | 69° |
| 2026-04-23 10:15 | 51.95532 | 1.21234 | 27944 ft | 429 kts | 70° |
| 2026-04-23 10:15 | 51.96669 | 1.25722 | 28307 ft | 432 kts | 70° |
| 2026-04-23 10:15 | 51.97812 | 1.30238 | 28646 ft | 434 kts | 70° |
| 2026-04-23 10:16 | 51.98961 | 1.34778 | 28978 ft | 436 kts | 70° |
| 2026-04-23 10:16 | 52.00114 | 1.39351 | 29309 ft | 439 kts | 70° |
| 2026-04-23 10:16 | 52.01269 | 1.43945 | 29638 ft | 441 kts | 70° |
| 2026-04-23 10:16 | 52.02427 | 1.48567 | 29948 ft | 443 kts | 72° |
| 2026-04-23 10:17 | 52.03589 | 1.53215 | 30292 ft | 444 kts | 72° |
| 2026-04-23 10:17 | 52.04752 | 1.57865 | 30624 ft | 445 kts | 73° |
| 2026-04-23 10:17 | 52.05913 | 1.62524 | 31019 ft | 444 kts | 73° |
| 2026-04-23 10:17 | 52.07071 | 1.67162 | 31414 ft | 442 kts | 73° |
| 2026-04-23 10:18 | 52.08224 | 1.71792 | 31814 ft | 441 kts | 73° |
| 2026-04-23 10:18 | 52.09367 | 1.76402 | 32211 ft | 440 kts | 73° |
| 2026-04-23 10:18 | 52.10506 | 1.81019 | 32617 ft | 438 kts | 73° |
| 2026-04-23 10:18 | 52.11637 | 1.85611 | 33023 ft | 437 kts | 73° |
| 2026-04-23 10:19 | 52.12768 | 1.90187 | 33432 ft | 435 kts | 73° |
| 2026-04-23 10:19 | 52.13895 | 1.94755 | 33843 ft | 434 kts | 73° |
| 2026-04-23 10:19 | 52.15015 | 1.99307 | 34259 ft | 432 kts | 74° |
| 2026-04-23 10:19 | 52.16126 | 2.03843 | 34693 ft | 430 kts | 74° |
| 2026-04-23 10:20 | 52.17227 | 2.08357 | 35035 ft | 429 kts | 73° |
| 2026-04-23 10:20 | 52.18327 | 2.12880 | 35340 ft | 429 kts | 73° |
| 2026-04-23 10:20 | 52.19426 | 2.17401 | 35632 ft | 430 kts | 73° |
| 2026-04-23 10:20 | 52.20527 | 2.21940 | 35910 ft | 431 kts | 73° |
| 2026-04-23 10:21 | 52.21626 | 2.26482 | 36179 ft | 431 kts | 73° |
| 2026-04-23 10:21 | 52.22725 | 2.31033 | 36454 ft | 432 kts | 72° |
| 2026-04-23 10:21 | 52.23827 | 2.35592 | 36713 ft | 432 kts | 72° |
| 2026-04-23 10:21 | 52.24929 | 2.40156 | 36973 ft | 433 kts | 72° |
| 2026-04-23 10:22 | 52.26033 | 2.44732 | 37217 ft | 433 kts | 72° |
| 2026-04-23 10:22 | 52.27133 | 2.49311 | 37427 ft | 434 kts | 72° |
| 2026-04-23 10:22 | 52.29305 | 2.58435 | 37500 ft | 433 kts | 73° |
| 2026-04-23 10:23 | 52.31314 | 2.67663 | 37501 ft | 429 kts | 77° |
| 2026-04-23 10:23 | 52.32972 | 2.77035 | 37498 ft | 429 kts | 78° |
| 2026-04-23 10:24 | 52.34619 | 2.86423 | 37496 ft | 429 kts | 78° |
| 2026-04-23 10:24 | 52.36256 | 2.95812 | 37496 ft | 429 kts | 78° |
| 2026-04-23 10:25 | 52.37888 | 3.05210 | 37495 ft | 429 kts | 78° |
| 2026-04-23 10:25 | 52.39517 | 3.14604 | 37507 ft | 429 kts | 77° |
| 2026-04-23 10:26 | 52.41938 | 3.23627 | 37508 ft | 434 kts | 68° |
| 2026-04-23 10:26 | 52.44589 | 3.32517 | 37510 ft | 434 kts | 69° |
| 2026-04-23 10:27 | 52.47228 | 3.41428 | 37504 ft | 434 kts | 69° |
| 2026-04-23 10:27 | 52.49838 | 3.50294 | 37488 ft | 434 kts | 69° |
| 2026-04-23 10:28 | 52.52453 | 3.59212 | 37505 ft | 433 kts | 69° |
| 2026-04-23 10:28 | 52.55061 | 3.68111 | 37511 ft | 432 kts | 69° |
| 2026-04-23 10:29 | 52.57655 | 3.77007 | 37511 ft | 431 kts | 69° |
| 2026-04-23 10:29 | 52.60235 | 3.85902 | 37507 ft | 431 kts | 69° |
| 2026-04-23 10:30 | 52.62810 | 3.94797 | 37509 ft | 430 kts | 69° |
| 2026-04-23 10:30 | 52.65381 | 4.03690 | 37502 ft | 430 kts | 69° |
| 2026-04-23 10:31 | 52.67940 | 4.12581 | 37510 ft | 428 kts | 69° |
| 2026-04-23 10:31 | 52.70474 | 4.21455 | 37499 ft | 428 kts | 69° |
| 2026-04-23 10:32 | 52.73007 | 4.30339 | 37495 ft | 428 kts | 69° |
| 2026-04-23 10:32 | 52.75532 | 4.39220 | 37495 ft | 427 kts | 69° |
| 2026-04-23 10:33 | 52.78048 | 4.48117 | 37492 ft | 427 kts | 70° |
| 2026-04-23 10:33 | 52.80551 | 4.57013 | 37491 ft | 427 kts | 70° |
| 2026-04-23 10:34 | 52.83058 | 4.65922 | 37491 ft | 427 kts | 70° |
| 2026-04-23 10:34 | 52.85553 | 4.74840 | 37500 ft | 427 kts | 70° |
| 2026-04-23 10:35 | 52.88039 | 4.83766 | 37498 ft | 427 kts | 70° |
| 2026-04-23 10:35 | 52.90513 | 4.92705 | 37498 ft | 427 kts | 70° |
| 2026-04-23 10:36 | 52.92990 | 5.01657 | 37480 ft | 428 kts | 70° |
| 2026-04-23 10:36 | 52.95465 | 5.10627 | 37453 ft | 428 kts | 70° |
| 2026-04-23 10:37 | 52.97934 | 5.19624 | 37459 ft | 429 kts | 70° |
| 2026-04-23 10:37 | 53.00397 | 5.28639 | 37455 ft | 429 kts | 70° |
| 2026-04-23 10:38 | 53.02850 | 5.37676 | 37460 ft | 429 kts | 70° |
| 2026-04-23 10:38 | 53.05187 | 5.46785 | 37466 ft | 428 kts | 72° |
| 2026-04-23 10:39 | 53.07384 | 5.55981 | 37457 ft | 428 kts | 72° |
| 2026-04-23 10:39 | 53.09564 | 5.65188 | 37452 ft | 428 kts | 72° |
| 2026-04-23 10:40 | 53.11751 | 5.74320 | 37448 ft | 428 kts | 72° |
| 2026-04-23 10:40 | 53.13967 | 5.83528 | 37445 ft | 428 kts | 72° |
| 2026-04-23 10:41 | 53.16177 | 5.92745 | 37444 ft | 429 kts | 72° |
| 2026-04-23 10:41 | 53.18378 | 6.01984 | 37458 ft | 429 kts | 72° |
| 2026-04-23 10:42 | 53.20568 | 6.11236 | 37446 ft | 429 kts | 72° |
| 2026-04-23 10:42 | 53.22748 | 6.20497 | 37459 ft | 429 kts | 72° |
| 2026-04-23 10:43 | 53.24922 | 6.29760 | 37461 ft | 428 kts | 72° |
| 2026-04-23 10:43 | 53.27089 | 6.39022 | 37456 ft | 428 kts | 72° |
| 2026-04-23 10:44 | 53.29242 | 6.48291 | 37458 ft | 428 kts | 72° |
| 2026-04-23 10:44 | 53.31393 | 6.57561 | 37448 ft | 428 kts | 72° |
| 2026-04-23 10:45 | 53.33539 | 6.66841 | 37443 ft | 428 kts | 72° |
| 2026-04-23 10:45 | 53.35666 | 6.76117 | 37450 ft | 427 kts | 72° |
| 2026-04-23 10:46 | 53.37779 | 6.85404 | 37448 ft | 426 kts | 72° |
| 2026-04-23 10:46 | 53.39885 | 6.94675 | 37447 ft | 426 kts | 72° |
| 2026-04-23 10:47 | 53.41993 | 7.03942 | 37443 ft | 425 kts | 72° |
| 2026-04-23 10:47 | 53.44089 | 7.13217 | 37432 ft | 425 kts | 72° |
| 2026-04-23 10:48 | 53.46176 | 7.22493 | 37429 ft | 425 kts | 72° |
| 2026-04-23 10:48 | 53.48252 | 7.31776 | 37424 ft | 424 kts | 72° |
| 2026-04-23 10:49 | 53.50076 | 7.41173 | 37424 ft | 422 kts | 76° |
| 2026-04-23 10:49 | 53.51628 | 7.50688 | 37336 ft | 421 kts | 77° |
| 2026-04-23 10:50 | 53.52383 | 7.55421 | 37070 ft | 418 kts | 77° |
| 2026-04-23 10:50 | 53.53145 | 7.60115 | 36809 ft | 417 kts | 76° |
| 2026-04-23 10:50 | 53.53930 | 7.64832 | 36444 ft | 420 kts | 76° |
| 2026-04-23 10:50 | 53.54733 | 7.69586 | 35743 ft | 424 kts | 76° |
| 2026-04-23 10:51 | 53.55537 | 7.74299 | 35535 ft | 415 kts | 76° |
| 2026-04-23 10:51 | 53.56329 | 7.78939 | 35179 ft | 410 kts | 75° |
| 2026-04-23 10:51 | 53.57109 | 7.83528 | 34798 ft | 406 kts | 75° |
| 2026-04-23 10:51 | 53.57868 | 7.88027 | 34402 ft | 403 kts | 75° |
| 2026-04-23 10:52 | 53.58626 | 7.92543 | 33925 ft | 400 kts | 75° |
| 2026-04-23 10:52 | 53.59385 | 7.97087 | 33440 ft | 397 kts | 76° |
| 2026-04-23 10:52 | 53.60115 | 8.01483 | 32971 ft | 394 kts | 76° |
| 2026-04-23 10:52 | 53.60847 | 8.05905 | 32514 ft | 391 kts | 76° |
| 2026-04-23 10:53 | 53.61573 | 8.10298 | 32060 ft | 388 kts | 76° |
| 2026-04-23 10:53 | 53.62258 | 8.14680 | 31720 ft | 391 kts | 77° |
| 2026-04-23 10:53 | 53.62851 | 8.19241 | 31472 ft | 406 kts | 79° |
| 2026-04-23 10:53 | 53.63390 | 8.23996 | 31218 ft | 422 kts | 80° |
| 2026-04-23 10:54 | 53.63911 | 8.28918 | 30973 ft | 430 kts | 81° |
| 2026-04-23 10:54 | 53.64429 | 8.33904 | 30731 ft | 434 kts | 80° |
| 2026-04-23 10:54 | 53.64962 | 8.38915 | 30490 ft | 435 kts | 80° |
| 2026-04-23 10:54 | 53.65512 | 8.43934 | 30217 ft | 436 kts | 79° |
| 2026-04-23 10:55 | 53.66076 | 8.48955 | 29932 ft | 436 kts | 79° |
| 2026-04-23 10:55 | 53.66646 | 8.53981 | 29653 ft | 438 kts | 79° |
| 2026-04-23 10:55 | 53.67217 | 8.59027 | 29378 ft | 438 kts | 79° |
| 2026-04-23 10:55 | 53.67785 | 8.64079 | 29102 ft | 439 kts | 79° |
| 2026-04-23 10:56 | 53.68352 | 8.69152 | 28827 ft | 440 kts | 79° |
| 2026-04-23 10:56 | 53.68914 | 8.74227 | 28556 ft | 441 kts | 79° |
| 2026-04-23 10:56 | 53.69470 | 8.79309 | 28289 ft | 441 kts | 79° |
| 2026-04-23 10:56 | 53.70023 | 8.84387 | 28034 ft | 439 kts | 79° |
| 2026-04-23 10:57 | 53.70574 | 8.89448 | 27771 ft | 438 kts | 79° |
| 2026-04-23 10:57 | 53.71121 | 8.94496 | 27505 ft | 437 kts | 79° |
| 2026-04-23 10:57 | 53.71480 | 8.97830 | 27339 ft | 436 kts | 79° |
| 2026-04-23 10:57 | 53.72021 | 9.02856 | 27074 ft | 435 kts | 79° |
| 2026-04-23 10:58 | 53.72561 | 9.07863 | 26816 ft | 433 kts | 79° |
| 2026-04-23 10:58 | 53.73095 | 9.12837 | 26283 ft | 428 kts | 79° |
| 2026-04-23 10:58 | 53.73620 | 9.17757 | 25615 ft | 424 kts | 79° |
| 2026-04-23 10:58 | 53.74138 | 9.22634 | 24958 ft | 420 kts | 79° |
| 2026-04-23 10:59 | 53.74650 | 9.27469 | 24314 ft | 416 kts | 79° |
| 2026-04-23 10:59 | 53.75156 | 9.32270 | 23629 ft | 413 kts | 79° |
| 2026-04-23 10:59 | 53.75651 | 9.37027 | 22970 ft | 408 kts | 79° |
| 2026-04-23 10:59 | 53.76135 | 9.41711 | 22345 ft | 402 kts | 78° |
| 2026-04-23 11:00 | 53.76614 | 9.46348 | 21732 ft | 398 kts | 78° |
| 2026-04-23 11:00 | 53.77087 | 9.50929 | 21137 ft | 394 kts | 78° |
| 2026-04-23 11:00 | 53.77703 | 9.56925 | 20388 ft | 389 kts | 78° |
| 2026-04-23 11:00 | 53.78014 | 9.59962 | 20015 ft | 387 kts | 78° |
| 2026-04-23 11:01 | 53.78471 | 9.64427 | 19479 ft | 384 kts | 78° |
| 2026-04-23 11:01 | 53.78918 | 9.68789 | 18962 ft | 380 kts | 77° |
| 2026-04-23 11:01 | 53.79366 | 9.73167 | 18428 ft | 376 kts | 77° |
| 2026-04-23 11:01 | 53.79807 | 9.77506 | 17890 ft | 371 kts | 78° |
| 2026-04-23 11:02 | 53.80237 | 9.81775 | 17381 ft | 365 kts | 78° |
| 2026-04-23 11:02 | 53.80657 | 9.85988 | 16860 ft | 361 kts | 78° |
| 2026-04-23 11:02 | 53.81074 | 9.90159 | 16411 ft | 357 kts | 78° |
| 2026-04-23 11:02 | 53.81534 | 9.94186 | 16276 ft | 339 kts | 69° |
| 2026-04-23 11:03 | 53.82528 | 9.97635 | 16137 ft | 316 kts | 55° |
| 2026-04-23 11:03 | 53.83677 | 10.00729 | 15754 ft | 307 kts | 54° |
| 2026-04-23 11:03 | 53.84822 | 10.03766 | 15234 ft | 305 kts | 54° |
| 2026-04-23 11:03 | 53.85955 | 10.06795 | 14722 ft | 303 kts | 54° |
| 2026-04-23 11:04 | 53.87074 | 10.09814 | 14276 ft | 303 kts | 54° |
| 2026-04-23 11:04 | 53.88185 | 10.12844 | 13707 ft | 304 kts | 54° |
| 2026-04-23 11:04 | 53.89299 | 10.15895 | 13048 ft | 303 kts | 54° |
| 2026-04-23 11:04 | 53.90401 | 10.18931 | 12408 ft | 301 kts | 54° |
| 2026-04-23 11:05 | 53.91489 | 10.21950 | 11779 ft | 299 kts | 54° |
| 2026-04-23 11:05 | 53.92562 | 10.24946 | 11170 ft | 296 kts | 54° |
| 2026-04-23 11:05 | 53.93621 | 10.27922 | 10659 ft | 291 kts | 54° |
| 2026-04-23 11:05 | 53.94663 | 10.30866 | 9955 ft | 293 kts | 54° |
| 2026-04-23 11:06 | 53.96745 | 10.36848 | 8382 ft | 297 kts | 61° |
| 2026-04-23 11:06 | 53.97189 | 10.40293 | 7628 ft | 305 kts | 87° |
| 2026-04-23 11:06 | 53.96705 | 10.43807 | 7015 ft | 309 kts | 114° |
| 2026-04-23 11:07 | 53.95422 | 10.46703 | 6423 ft | 307 kts | 132° |
| 2026-04-23 11:07 | 53.93896 | 10.49203 | 5850 ft | 302 kts | 137° |
| 2026-04-23 11:07 | 53.92085 | 10.50929 | 5292 ft | 300 kts | 163° |
| 2026-04-23 11:07 | 53.90035 | 10.51159 | 4727 ft | 295 kts | 191° |
| 2026-04-23 11:08 | 53.88117 | 10.50108 | 4261 ft | 286 kts | 204° |
| 2026-04-23 11:08 | 53.86443 | 10.48486 | 3974 ft | 268 kts | 229° |
| 2026-04-23 11:08 | 53.85600 | 10.45831 | 3961 ft | 256 kts | 258° |
| 2026-04-23 11:08 | 53.84947 | 10.43011 | 3956 ft | 262 kts | 237° |
| 2026-04-23 11:09 | 53.83677 | 10.40784 | 3955 ft | 260 kts | 228° |
| 2026-04-23 11:09 | 53.82492 | 10.38596 | 3959 ft | 244 kts | 233° |
| 2026-04-23 11:09 | 53.81447 | 10.36445 | 3963 ft | 228 kts | 234° |
| 2026-04-23 11:09 | 53.80482 | 10.34444 | 3960 ft | 211 kts | 234° |
| 2026-04-23 11:10 | 53.79584 | 10.32597 | 3950 ft | 195 kts | 236° |
| 2026-04-23 11:10 | 53.78735 | 10.30850 | 4011 ft | 189 kts | 235° |
| 2026-04-23 11:10 | 53.77894 | 10.29121 | 3987 ft | 191 kts | 236° |
| 2026-04-23 11:10 | 53.77053 | 10.27394 | 3979 ft | 189 kts | 234° |
| 2026-04-23 11:11 | 53.76212 | 10.25670 | 3914 ft | 191 kts | 235° |
| 2026-04-23 11:11 | 53.75369 | 10.23945 | 3714 ft | 190 kts | 236° |
| 2026-04-23 11:11 | 53.74530 | 10.22228 | 3476 ft | 189 kts | 236° |
| 2026-04-23 11:11 | 53.73695 | 10.20521 | 3221 ft | 187 kts | 236° |
| 2026-04-23 11:12 | 53.72871 | 10.18837 | 2970 ft | 186 kts | 235° |
| 2026-04-23 11:12 | 53.72051 | 10.17164 | 2723 ft | 183 kts | 237° |
| 2026-04-23 11:12 | 53.71251 | 10.15532 | 2479 ft | 178 kts | 235° |
| 2026-04-23 11:12 | 53.70470 | 10.13939 | 2235 ft | 174 kts | 236° |
| 2026-04-23 11:13 | 53.69710 | 10.12391 | 1997 ft | 169 kts | 236° |
| 2026-04-23 11:13 | 53.68971 | 10.10887 | 1762 ft | 162 kts | 237° |
| 2026-04-23 11:13 | 53.68281 | 10.09485 | 1544 ft | 148 kts | 237° |
| 2026-04-23 11:13 | 53.67648 | 10.08200 | 1348 ft | 138 kts | 236° |
| 2026-04-23 11:14 | 53.67065 | 10.07011 | 1165 ft | 129 kts | 236° |
| 2026-04-23 11:14 | 53.66500 | 10.05862 | 988 ft | 125 kts | 237° |
| 2026-04-23 11:14 | 53.65954 | 10.04757 | 819 ft | 121 kts | 241° |
| 2026-04-23 11:14 | 53.65416 | 10.03675 | 644 ft | 121 kts | 240° |
| 2026-04-23 11:15 | 53.64881 | 10.02582 | 467 ft | 120 kts | 238° |
| 2026-04-23 11:15 | 53.64352 | 10.01496 | 313 ft | 121 kts | 236° |
| 2026-04-23 11:15 | 53.63812 | 10.00414 | 148 ft | 120 kts | 237° |
| 2026-04-23 11:15 | 53.63299 | 9.99347 | 53 ft | 107 kts | 231° |
| 2026-04-23 11:16 | 53.62907 | 9.98553 | 49 ft | 64 kts | 230° |
| 2026-04-23 11:16 | 53.62689 | 9.98115 | 50 ft | 47 kts | 230° |
| 2026-04-23 11:16 | 53.62473 | 9.97803 | 47 ft | 30 kts | 170° |
| 2026-04-23 11:16 | 53.62438 | 9.98006 | 47 ft | 3 kts | 78° |
| 2026-04-23 11:17 | 53.62439 | 9.98011 | 48 ft | 2 kts | 78° |
| 2026-04-23 11:17 | 53.62446 | 9.98068 | 50 ft | 10 kts | 78° |
| 2026-04-23 11:17 | 53.62463 | 9.98215 | 50 ft | 15 kts | 79° |
| 2026-04-23 11:17 | 53.62484 | 9.98397 | 51 ft | 17 kts | 79° |
| 2026-04-23 11:18 | 53.62508 | 9.98614 | 49 ft | 20 kts | 79° |
| 2026-04-23 11:18 | 53.62536 | 9.98862 | 48 ft | 23 kts | 79° |
| 2026-04-23 11:18 | 53.62568 | 9.99133 | 48 ft | 24 kts | 79° |
| 2026-04-23 11:18 | 53.62600 | 9.99420 | 51 ft | 25 kts | 79° |
| 2026-04-23 11:19 | 53.62627 | 9.99652 | 50 ft | 17 kts | 79° |
| 2026-04-23 11:19 | 53.62636 | 9.99735 | 50 ft | 0 kts | 78° |
| 2026-04-23 11:19 | 53.62636 | 9.99736 | 50 ft | 0 kts | 78° |
| 2026-04-23 11:20 | 53.62637 | 9.99738 | 50 ft | 2 kts | 78° |
| 2026-04-23 11:20 | 53.62652 | 9.99804 | 47 ft | 10 kts | 58° |
| 2026-04-23 11:20 | 53.62729 | 9.99893 | 49 ft | 15 kts | 27° |
| 2026-04-23 11:21 | 53.62826 | 9.99990 | 48 ft | 17 kts | 31° |
| 2026-04-23 11:21 | 53.62912 | 10.00093 | 51 ft | 13 kts | 33° |
| 2026-04-23 11:21 | 53.62984 | 10.00171 | 48 ft | 12 kts | 32° |
| 2026-04-23 11:21 | 53.63032 | 10.00224 | 51 ft | 5 kts | 45° |
| 2026-04-23 11:22 | 53.63020 | 10.00275 | 48 ft | 7 kts | 115° |
| 2026-04-23 11:22 | 53.63000 | 10.00341 | 51 ft | 4 kts | 116° |
| 2026-04-23 11:22 | 53.62998 | 10.00349 | 51 ft | 0 kts | 116° |
| 2026-04-23 11:24 | 53.63032 | 10.00351 | 49 ft | 0 kts | 122° |